Duvernay, Canada
Current Conditions -  °F | °C
As of 4:00 AM on Monday 20 Oct 2014 (Local Time) from CYUL Reporting Station
Broken Clouds Broken Clouds  
Wind Chill: 37°   Ceiling: 22000
Heat Index: 37°   Visibility: 15mi
Dew Point: 25°   Wind: 3mph
Humidity: 60%   Direction: 280°W
Pressure: 29.98"   Gusts: NA
Location:  45.57°N, 73.85°W
Report Text: CYUL 200800Z 28003KT 15SM SCT040 BKN220 03/M04 A2998 RMK SC4CI1 SLP153
Loading
Personal Weather Stations






























Interactive Weather Map
Tropical Storm Tracking
New forecast layout! Learn more

10-Day Weather Forecast

Advertisements
Track Severe Weather on mobile